sensor_id;sensor_type;location;lat;lon;timestamp;pressure;altitude;pressure_sealevel;temperature;humidity
4085;BME280;2057;50.858;6.572;2023-04-26T00:02:23;100663.72;;;4.86;88.04
4085;BME280;2057;50.858;6.572;2023-04-26T00:04:55;100657.66;;;4.50;89.70
4085;BME280;2057;50.858;6.572;2023-04-26T00:07:22;100654.69;;;4.44;90.20
4085;BME280;2057;50.858;6.572;2023-04-26T00:09:50;100655.91;;;4.49;90.16
4085;BME280;2057;50.858;6.572;2023-04-26T00:12:19;100657.72;;;4.39;90.10
4085;BME280;2057;50.858;6.572;2023-04-26T00:14:46;100657.78;;;4.51;90.29
4085;BME280;2057;50.858;6.572;2023-04-26T00:17:12;100665.09;;;4.48;90.19
4085;BME280;2057;50.858;6.572;2023-04-26T00:19:37;100655.84;;;4.59;90.49
4085;BME280;2057;50.858;6.572;2023-04-26T00:22:04;100651.88;;;4.51;90.61
4085;BME280;2057;50.858;6.572;2023-04-26T00:24:30;100655.09;;;4.60;91.19
4085;BME280;2057;50.858;6.572;2023-04-26T00:26:56;100646.22;;;4.31;92.40
4085;BME280;2057;50.858;6.572;2023-04-26T00:29:22;100648.78;;;4.21;93.11
4085;BME280;2057;50.858;6.572;2023-04-26T00:31:47;100647.81;;;4.19;93.73
4085;BME280;2057;50.858;6.572;2023-04-26T00:34:15;100648.50;;;4.28;93.18
4085;BME280;2057;50.858;6.572;2023-04-26T00:36:40;100638.63;;;4.42;92.89
4085;BME280;2057;50.858;6.572;2023-04-26T00:39:06;100636.84;;;4.40;92.58
4085;BME280;2057;50.858;6.572;2023-04-26T00:41:32;100644.44;;;4.30;93.05
4085;BME280;2057;50.858;6.572;2023-04-26T00:43:58;100646.69;;;4.37;92.73
4085;BME280;2057;50.858;6.572;2023-04-26T00:46:23;100651.03;;;4.28;93.70
4085;BME280;2057;50.858;6.572;2023-04-26T00:48:52;100642.78;;;4.19;93.01
4085;BME280;2057;50.858;6.572;2023-04-26T00:51:17;100640.19;;;4.07;94.39
4085;BME280;2057;50.858;6.572;2023-04-26T00:53:43;100645.34;;;4.08;95.16
4085;BME280;2057;50.858;6.572;2023-04-26T00:56:09;100639.66;;;4.11;94.71
4085;BME280;2057;50.858;6.572;2023-04-26T00:58:36;100638.72;;;4.21;93.91
4085;BME280;2057;50.858;6.572;2023-04-26T01:01:01;100641.31;;;4.11;94.61
4085;BME280;2057;50.858;6.572;2023-04-26T01:03:27;100639.56;;;4.10;95.37
4085;BME280;2057;50.858;6.572;2023-04-26T01:05:53;100639.06;;;4.03;94.88
4085;BME280;2057;50.858;6.572;2023-04-26T01:08:22;100642.81;;;4.08;95.01
4085;BME280;2057;50.858;6.572;2023-04-26T01:10:48;100640.09;;;3.95;95.07
4085;BME280;2057;50.858;6.572;2023-04-26T01:13:14;100643.63;;;3.87;95.71
4085;BME280;2057;50.858;6.572;2023-04-26T01:15:48;100646.81;;;3.74;96.86
4085;BME280;2057;50.858;6.572;2023-04-26T01:18:14;100641.31;;;3.78;96.61
4085;BME280;2057;50.858;6.572;2023-04-26T01:20:40;100652.47;;;3.82;97.55
4085;BME280;2057;50.858;6.572;2023-04-26T01:23:06;100650.44;;;3.77;97.43
4085;BME280;2057;50.858;6.572;2023-04-26T01:25:32;100646.97;;;3.75;97.46
4085;BME280;2057;50.858;6.572;2023-04-26T01:27:58;100657.31;;;3.58;98.76
4085;BME280;2057;50.858;6.572;2023-04-26T01:30:24;100655.91;;;3.61;98.95
4085;BME280;2057;50.858;6.572;2023-04-26T01:32:49;100647.91;;;3.55;99.66
4085;BME280;2057;50.858;6.572;2023-04-26T01:35:15;100654.53;;;3.55;100.00
4085;BME280;2057;50.858;6.572;2023-04-26T01:37:40;100651.94;;;3.43;100.00
4085;BME280;2057;50.858;6.572;2023-04-26T01:40:06;100650.28;;;3.54;100.00
4085;BME280;2057;50.858;6.572;2023-04-26T01:42:32;100655.78;;;3.60;100.00
4085;BME280;2057;50.858;6.572;2023-04-26T01:44:57;100653.88;;;3.68;100.00
4085;BME280;2057;50.858;6.572;2023-04-26T01:47:22;100643.28;;;3.50;100.00
4085;BME280;2057;50.858;6.572;2023-04-26T01:49:51;100644.03;;;3.49;100.00
4085;BME280;2057;50.858;6.572;2023-04-26T01:52:16;100643.38;;;3.61;100.00
4085;BME280;2057;50.858;6.572;2023-04-26T01:54:42;100644.78;;;3.48;99.94
4085;BME280;2057;50.858;6.572;2023-04-26T01:57:10;100647.28;;;3.37;100.00
4085;BME280;2057;50.858;6.572;2023-04-26T01:59:35;100652.06;;;3.34;100.00
4085;BME280;2057;50.858;6.572;2023-04-26T02:02:01;100651.81;;;3.41;100.00
4085;BME280;2057;50.858;6.572;2023-04-26T02:04:28;100652.75;;;3.64;100.00
4085;BME280;2057;50.858;6.572;2023-04-26T02:06:54;100644.97;;;3.71;100.00
4085;BME280;2057;50.858;6.572;2023-04-26T02:09:19;100648.97;;;3.69;100.00
4085;BME280;2057;50.858;6.572;2023-04-26T02:11:45;100654.72;;;3.36;99.27
4085;BME280;2057;50.858;6.572;2023-04-26T02:14:10;100651.97;;;2.91;100.00
4085;BME280;2057;50.858;6.572;2023-04-26T02:16:39;100657.97;;;2.83;100.00
4085;BME280;2057;50.858;6.572;2023-04-26T02:19:05;100644.53;;;2.62;100.00
4085;BME280;2057;50.858;6.572;2023-04-26T02:21:49;100643.75;;;2.42;100.00
4085;BME280;2057;50.858;6.572;2023-04-26T02:24:15;100648.69;;;2.22;100.00
4085;BME280;2057;50.858;6.572;2023-04-26T02:26:41;100648.06;;;2.14;100.00
4085;BME280;2057;50.858;6.572;2023-04-26T02:29:06;100655.44;;;2.12;100.00
4085;BME280;2057;50.858;6.572;2023-04-26T02:31:31;100652.16;;;2.13;100.00
4085;BME280;2057;50.858;6.572;2023-04-26T02:33:56;100645.34;;;2.31;100.00
4085;BME280;2057;50.858;6.572;2023-04-26T02:36:22;100646.97;;;2.31;100.00
4085;BME280;2057;50.858;6.572;2023-04-26T02:38:51;100643.75;;;2.42;100.00
4085;BME280;2057;50.858;6.572;2023-04-26T02:41:16;100639.25;;;2.38;100.00
4085;BME280;2057;50.858;6.572;2023-04-26T02:43:41;100648.44;;;2.58;100.00
4085;BME280;2057;50.858;6.572;2023-04-26T02:46:07;100650.91;;;2.48;100.00
4085;BME280;2057;50.858;6.572;2023-04-26T02:48:32;100644.53;;;2.51;100.00
4085;BME280;2057;50.858;6.572;2023-04-26T02:50:57;100649.19;;;2.67;100.00
4085;BME280;2057;50.858;6.572;2023-04-26T02:53:23;100653.81;;;2.53;100.00
4085;BME280;2057;50.858;6.572;2023-04-26T02:55:48;100652.41;;;2.46;100.00
4085;BME280;2057;50.858;6.572;2023-04-26T02:58:14;100643.38;;;2.48;100.00
4085;BME280;2057;50.858;6.572;2023-04-26T03:00:47;100638.53;;;2.60;100.00
4085;BME280;2057;50.858;6.572;2023-04-26T03:03:13;100638.03;;;2.64;100.00
4085;BME280;2057;50.858;6.572;2023-04-26T03:05:38;100631.38;;;2.54;100.00
4085;BME280;2057;50.858;6.572;2023-04-26T03:08:04;100623.97;;;2.45;100.00
4085;BME280;2057;50.858;6.572;2023-04-26T03:10:30;100626.47;;;2.45;100.00
4085;BME280;2057;50.858;6.572;2023-04-26T03:12:55;100621.19;;;2.42;100.00
4085;BME280;2057;50.858;6.572;2023-04-26T03:15:21;100626.34;;;2.33;100.00
4085;BME280;2057;50.858;6.572;2023-04-26T03:17:46;100621.91;;;2.31;100.00
4085;BME280;2057;50.858;6.572;2023-04-26T03:20:11;100626.22;;;2.42;100.00
4085;BME280;2057;50.858;6.572;2023-04-26T03:22:38;100616.69;;;2.48;100.00
4085;BME280;2057;50.858;6.572;2023-04-26T03:40:33;100620.22;;;2.50;100.00
4085;BME280;2057;50.858;6.572;2023-04-26T03:45:33;100623.59;;;2.61;100.00
4085;BME280;2057;50.858;6.572;2023-04-26T03:53:10;100619.44;;;2.41;100.00
4085;BME280;2057;50.858;6.572;2023-04-26T03:55:36;100621.72;;;2.38;100.00
4085;BME280;2057;50.858;6.572;2023-04-26T03:58:01;100619.94;;;2.47;100.00
4085;BME280;2057;50.858;6.572;2023-04-26T04:00:27;100621.59;;;2.47;100.00
4085;BME280;2057;50.858;6.572;2023-04-26T04:02:53;100625.22;;;2.50;100.00
4085;BME280;2057;50.858;6.572;2023-04-26T04:05:18;100627.13;;;2.63;100.00
4085;BME280;2057;50.858;6.572;2023-04-26T04:07:43;100623.63;;;2.51;100.00
4085;BME280;2057;50.858;6.572;2023-04-26T04:10:09;100629.88;;;2.56;100.00
4085;BME280;2057;50.858;6.572;2023-04-26T04:12:35;100624.22;;;2.38;100.00
4085;BME280;2057;50.858;6.572;2023-04-26T04:15:00;100626.97;;;2.51;100.00
4085;BME280;2057;50.858;6.572;2023-04-26T04:17:26;100633.41;;;2.58;100.00
4085;BME280;2057;50.858;6.572;2023-04-26T04:19:52;100623.84;;;2.54;100.00
4085;BME280;2057;50.858;6.572;2023-04-26T04:22:18;100631.38;;;2.54;100.00
4085;BME280;2057;50.858;6.572;2023-04-26T04:24:44;100631.00;;;3.11;100.00
4085;BME280;2057;50.858;6.572;2023-04-26T04:27:11;100630.16;;;2.90;100.00
4085;BME280;2057;50.858;6.572;2023-04-26T04:29:38;100633.78;;;2.94;100.00
4085;BME280;2057;50.858;6.572;2023-04-26T04:32:07;100637.81;;;2.81;100.00
4085;BME280;2057;50.858;6.572;2023-04-26T04:34:34;100637.94;;;2.83;100.00
4085;BME280;2057;50.858;6.572;2023-04-26T04:37:00;100638.31;;;2.88;100.00
4085;BME280;2057;50.858;6.572;2023-04-26T04:39:28;100640.31;;;2.81;100.00
4085;BME280;2057;50.858;6.572;2023-04-26T04:41:53;100642.56;;;2.89;100.00
4085;BME280;2057;50.858;6.572;2023-04-26T04:44:19;100638.69;;;2.92;100.00
4085;BME280;2057;50.858;6.572;2023-04-26T04:46:44;100646.84;;;2.90;100.00
4085;BME280;2057;50.858;6.572;2023-04-26T04:49:10;100646.44;;;2.95;100.00
4085;BME280;2057;50.858;6.572;2023-04-26T04:51:37;100650.09;;;2.99;100.00
4085;BME280;2057;50.858;6.572;2023-04-26T04:54:14;100656.63;;;3.07;100.00
4085;BME280;2057;50.858;6.572;2023-04-26T04:56:43;100645.94;;;3.10;100.00
4085;BME280;2057;50.858;6.572;2023-04-26T04:59:09;100652.09;;;3.03;100.00
4085;BME280;2057;50.858;6.572;2023-04-26T05:01:34;100662.13;;;3.13;100.00
4085;BME280;2057;50.858;6.572;2023-04-26T05:04:01;100655.72;;;3.17;100.00
4085;BME280;2057;50.858;6.572;2023-04-26T05:06:27;100659.63;;;3.03;100.00
4085;BME280;2057;50.858;6.572;2023-04-26T05:08:54;100660.63;;;3.05;100.00
4085;BME280;2057;50.858;6.572;2023-04-26T05:11:19;100657.84;;;3.12;100.00
4085;BME280;2057;50.858;6.572;2023-04-26T05:13:45;100664.88;;;3.17;100.00
4085;BME280;2057;50.858;6.572;2023-04-26T05:16:11;100662.13;;;3.24;100.00
4085;BME280;2057;50.858;6.572;2023-04-26T05:18:37;100665.50;;;3.35;100.00
4085;BME280;2057;50.858;6.572;2023-04-26T05:21:05;100670.00;;;3.39;100.00
4085;BME280;2057;50.858;6.572;2023-04-26T05:23:30;100677.25;;;3.56;100.00
4085;BME280;2057;50.858;6.572;2023-04-26T05:25:56;100682.88;;;3.64;100.00
4085;BME280;2057;50.858;6.572;2023-04-26T05:28:21;100681.00;;;3.72;100.00
4085;BME280;2057;50.858;6.572;2023-04-26T05:30:47;100685.84;;;3.81;99.03
4085;BME280;2057;50.858;6.572;2023-04-26T05:33:15;100681.88;;;3.72;99.86
4085;BME280;2057;50.858;6.572;2023-04-26T05:35:40;100688.13;;;3.77;99.94
4085;BME280;2057;50.858;6.572;2023-04-26T05:38:06;100689.13;;;3.69;100.00
4085;BME280;2057;50.858;6.572;2023-04-26T05:40:31;100687.69;;;3.51;100.00
4085;BME280;2057;50.858;6.572;2023-04-26T05:42:56;100688.91;;;3.66;100.00
4085;BME280;2057;50.858;6.572;2023-04-26T05:45:22;100689.31;;;3.60;100.00
4085;BME280;2057;50.858;6.572;2023-04-26T05:47:50;100691.91;;;3.72;100.00
4085;BME280;2057;50.858;6.572;2023-04-26T05:50:16;100688.38;;;3.70;100.00
4085;BME280;2057;50.858;6.572;2023-04-26T05:52:41;100693.13;;;3.77;100.00
4085;BME280;2057;50.858;6.572;2023-04-26T05:55:07;100701.09;;;3.72;100.00
4085;BME280;2057;50.858;6.572;2023-04-26T05:57:33;100704.56;;;3.74;100.00
4085;BME280;2057;50.858;6.572;2023-04-26T06:00:01;100699.22;;;3.59;100.00
4085;BME280;2057;50.858;6.572;2023-04-26T06:02:27;100701.47;;;3.66;100.00
4085;BME280;2057;50.858;6.572;2023-04-26T06:04:52;100698.94;;;3.76;100.00
4085;BME280;2057;50.858;6.572;2023-04-26T06:07:18;100698.13;;;3.88;100.00
4085;BME280;2057;50.858;6.572;2023-04-26T06:09:43;100701.84;;;4.03;100.00
4085;BME280;2057;50.858;6.572;2023-04-26T06:12:08;100705.38;;;4.05;100.00
4085;BME280;2057;50.858;6.572;2023-04-26T06:14:36;100702.47;;;4.11;100.00
4085;BME280;2057;50.858;6.572;2023-04-26T06:17:02;100708.69;;;4.27;100.00
4085;BME280;2057;50.858;6.572;2023-04-26T06:19:27;100708.84;;;4.18;100.00
4085;BME280;2057;50.858;6.572;2023-04-26T06:21:52;100705.78;;;4.32;99.87
4085;BME280;2057;50.858;6.572;2023-04-26T06:24:19;100716.84;;;4.34;99.91
4085;BME280;2057;50.858;6.572;2023-04-26T06:26:44;100718.16;;;4.19;99.15
4085;BME280;2057;50.858;6.572;2023-04-26T06:29:10;100721.59;;;4.31;99.64
4085;BME280;2057;50.858;6.572;2023-04-26T06:31:35;100713.88;;;4.50;99.12
4085;BME280;2057;50.858;6.572;2023-04-26T06:34:01;100710.00;;;4.66;98.19
4085;BME280;2057;50.858;6.572;2023-04-26T06:36:27;100704.94;;;4.76;97.80
4085;BME280;2057;50.858;6.572;2023-04-26T06:38:52;100710.56;;;4.96;97.75
4085;BME280;2057;50.858;6.572;2023-04-26T06:41:18;100711.63;;;4.87;97.26
4085;BME280;2057;50.858;6.572;2023-04-26T06:43:44;100715.13;;;4.90;97.02
4085;BME280;2057;50.858;6.572;2023-04-26T06:46:09;100715.53;;;5.06;96.00
4085;BME280;2057;50.858;6.572;2023-04-26T06:48:34;100710.22;;;4.91;95.56
4085;BME280;2057;50.858;6.572;2023-04-26T06:51:06;100714.78;;;5.07;96.43
4085;BME280;2057;50.858;6.572;2023-04-26T06:53:32;100709.72;;;5.07;97.45
4085;BME280;2057;50.858;6.572;2023-04-26T06:55:58;100702.88;;;5.16;98.05
4085;BME280;2057;50.858;6.572;2023-04-26T06:58:23;100706.63;;;4.99;97.90
4085;BME280;2057;50.858;6.572;2023-04-26T07:00:49;100705.69;;;5.09;98.81
4085;BME280;2057;50.858;6.572;2023-04-26T07:03:14;100713.13;;;5.08;98.50
4085;BME280;2057;50.858;6.572;2023-04-26T07:05:40;100714.06;;;4.98;98.62
4085;BME280;2057;50.858;6.572;2023-04-26T07:08:05;100713.47;;;5.12;98.97
4085;BME280;2057;50.858;6.572;2023-04-26T07:10:31;100716.47;;;5.30;97.94
4085;BME280;2057;50.858;6.572;2023-04-26T07:12:56;100720.00;;;5.32;94.06
4085;BME280;2057;50.858;6.572;2023-04-26T07:15:21;100723.63;;;5.36;90.90
4085;BME280;2057;50.858;6.572;2023-04-26T07:17:47;100715.75;;;5.43;91.97
4085;BME280;2057;50.858;6.572;2023-04-26T07:20:12;100717.28;;;5.53;93.41
4085;BME280;2057;50.858;6.572;2023-04-26T07:22:39;100719.03;;;5.54;93.73
4085;BME280;2057;50.858;6.572;2023-04-26T07:25:05;100719.06;;;5.78;90.36
4085;BME280;2057;50.858;6.572;2023-04-26T07:27:30;100728.88;;;5.51;86.94
4085;BME280;2057;50.858;6.572;2023-04-26T07:29:56;100726.06;;;5.58;86.55
4085;BME280;2057;50.858;6.572;2023-04-26T07:32:21;100724.50;;;5.60;84.27
4085;BME280;2057;50.858;6.572;2023-04-26T07:34:47;100728.50;;;5.80;85.65
4085;BME280;2057;50.858;6.572;2023-04-26T07:37:12;100734.50;;;5.82;84.17
4085;BME280;2057;50.858;6.572;2023-04-26T07:39:37;100735.28;;;5.93;82.10
4085;BME280;2057;50.858;6.572;2023-04-26T07:42:05;100730.88;;;5.79;82.64
4085;BME280;2057;50.858;6.572;2023-04-26T07:44:31;100728.25;;;5.89;82.31
4085;BME280;2057;50.858;6.572;2023-04-26T07:46:56;100722.56;;;5.92;82.16
4085;BME280;2057;50.858;6.572;2023-04-26T07:49:22;100725.66;;;6.00;83.45
4085;BME280;2057;50.858;6.572;2023-04-26T07:51:47;100730.03;;;6.14;79.66
4085;BME280;2057;50.858;6.572;2023-04-26T07:54:13;100729.03;;;6.12;79.13
4085;BME280;2057;50.858;6.572;2023-04-26T07:56:38;100723.03;;;6.22;80.09
4085;BME280;2057;50.858;6.572;2023-04-26T07:59:03;100717.84;;;6.20;78.56
4085;BME280;2057;50.858;6.572;2023-04-26T08:01:29;100714.50;;;6.08;78.54
4085;BME280;2057;50.858;6.572;2023-04-26T08:03:54;100720.34;;;6.44;74.34
4085;BME280;2057;50.858;6.572;2023-04-26T08:06:20;100725.00;;;6.02;73.27
4085;BME280;2057;50.858;6.572;2023-04-26T08:08:46;100724.22;;;6.27;75.78
4085;BME280;2057;50.858;6.572;2023-04-26T08:11:14;100713.25;;;6.64;77.12
4085;BME280;2057;50.858;6.572;2023-04-26T08:13:42;100710.47;;;6.84;79.02
4085;BME280;2057;50.858;6.572;2023-04-26T08:16:08;100712.22;;;6.85;79.59
4085;BME280;2057;50.858;6.572;2023-04-26T08:18:34;100714.00;;;7.00;78.85
4085;BME280;2057;50.858;6.572;2023-04-26T08:21:01;100706.03;;;7.19;78.94
4085;BME280;2057;50.858;6.572;2023-04-26T08:23:27;100697.50;;;7.30;78.29
4085;BME280;2057;50.858;6.572;2023-04-26T08:25:56;100704.22;;;7.43;79.22
4085;BME280;2057;50.858;6.572;2023-04-26T08:28:21;100706.56;;;7.40;77.29
4085;BME280;2057;50.858;6.572;2023-04-26T08:30:46;100707.75;;;7.20;77.45
4085;BME280;2057;50.858;6.572;2023-04-26T08:33:12;100699.63;;;7.24;78.12
4085;BME280;2057;50.858;6.572;2023-04-26T08:35:37;100704.22;;;7.43;77.43
4085;BME280;2057;50.858;6.572;2023-04-26T08:38:03;100699.50;;;7.61;78.08
4085;BME280;2057;50.858;6.572;2023-04-26T08:40:28;100716.88;;;7.70;76.94
4085;BME280;2057;50.858;6.572;2023-04-26T08:42:54;100716.88;;;7.70;76.08
4085;BME280;2057;50.858;6.572;2023-04-26T08:45:20;100712.22;;;7.63;76.91
4085;BME280;2057;50.858;6.572;2023-04-26T08:47:49;100719.28;;;7.03;75.57
4085;BME280;2057;50.858;6.572;2023-04-26T08:50:20;100711.63;;;7.15;74.86
4085;BME280;2057;50.858;6.572;2023-04-26T08:52:48;100717.47;;;7.14;78.41
4085;BME280;2057;50.858;6.572;2023-04-26T08:55:15;100709.44;;;7.33;75.52
4085;BME280;2057;50.858;6.572;2023-04-26T08:57:42;100716.66;;;7.40;77.16
4085;BME280;2057;50.858;6.572;2023-04-26T09:00:08;100712.41;;;7.52;76.78
4085;BME280;2057;50.858;6.572;2023-04-26T09:02:39;100713.78;;;7.74;76.04
4085;BME280;2057;50.858;6.572;2023-04-26T09:05:06;100719.81;;;7.90;76.23
4085;BME280;2057;50.858;6.572;2023-04-26T09:07:39;100719.63;;;7.87;75.03
4085;BME280;2057;50.858;6.572;2023-04-26T09:10:05;100722.94;;;7.99;75.52
4085;BME280;2057;50.858;6.572;2023-04-26T09:12:30;100725.09;;;7.93;72.92
4085;BME280;2057;50.858;6.572;2023-04-26T09:14:56;100713.09;;;8.04;75.60
4085;BME280;2057;50.858;6.572;2023-04-26T09:19:50;100699.75;;;8.20;73.99
4085;BME280;2057;50.858;6.572;2023-04-26T09:22:26;100704.22;;;8.24;73.25
4085;BME280;2057;50.858;6.572;2023-04-26T09:24:52;100706.56;;;8.34;73.09
4085;BME280;2057;50.858;6.572;2023-04-26T09:27:18;100708.50;;;8.25;71.57
4085;BME280;2057;50.858;6.572;2023-04-26T09:30:00;100703.38;;;8.10;70.13
4085;BME280;2057;50.858;6.572;2023-04-26T09:32:26;100702.88;;;7.62;68.68
4085;BME280;2057;50.858;6.572;2023-04-26T09:34:53;100700.56;;;7.65;69.09
4085;BME280;2057;50.858;6.572;2023-04-26T09:37:18;100698.78;;;7.37;70.04
4085;BME280;2057;50.858;6.572;2023-04-26T09:39:46;100694.41;;;7.48;69.95
4085;BME280;2057;50.858;6.572;2023-04-26T09:42:15;100691.94;;;7.88;70.08
4085;BME280;2057;50.858;6.572;2023-04-26T09:44:42;100683.50;;;8.29;70.06
4085;BME280;2057;50.858;6.572;2023-04-26T09:47:13;100692.53;;;8.53;68.28
4085;BME280;2057;50.858;6.572;2023-04-26T09:49:48;100699.16;;;8.51;67.62
4085;BME280;2057;50.858;6.572;2023-04-26T09:52:16;100689.59;;;8.60;67.65
4085;BME280;2057;50.858;6.572;2023-04-26T09:54:53;100691.63;;;8.81;68.92
4085;BME280;2057;50.858;6.572;2023-04-26T09:57:20;100682.25;;;8.93;68.67
4085;BME280;2057;50.858;6.572;2023-04-26T09:59:51;100681.63;;;8.54;66.74
4085;BME280;2057;50.858;6.572;2023-04-26T10:02:23;100687.09;;;8.33;68.07
4085;BME280;2057;50.858;6.572;2023-04-26T10:04:51;100685.78;;;7.98;68.46
4085;BME280;2057;50.858;6.572;2023-04-26T10:07:20;100689.38;;;7.75;67.59
4085;BME280;2057;50.858;6.572;2023-04-26T10:09:51;100686.56;;;7.70;67.92
4085;BME280;2057;50.858;6.572;2023-04-26T10:12:20;100681.81;;;7.61;68.56
4085;BME280;2057;50.858;6.572;2023-04-26T10:14:45;100687.94;;;7.92;67.08
4085;BME280;2057;50.858;6.572;2023-04-26T10:17:12;100677.13;;;7.81;66.29
4085;BME280;2057;50.858;6.572;2023-04-26T10:19:38;100689.38;;;7.75;67.44
4085;BME280;2057;50.858;6.572;2023-04-26T10:22:22;100683.84;;;7.80;65.29
4085;BME280;2057;50.858;6.572;2023-04-26T10:24:50;100679.13;;;8.13;63.80
4085;BME280;2057;50.858;6.572;2023-04-26T10:30:08;100679.41;;;8.31;62.69
4085;BME280;2057;50.858;6.572;2023-04-26T10:35:20;100677.81;;;9.19;61.90
4085;BME280;2057;50.858;6.572;2023-04-26T10:40:39;100676.13;;;9.79;61.02
4085;BME280;2057;50.858;6.572;2023-04-26T10:45:40;100669.22;;;10.08;60.71
4085;BME280;2057;50.858;6.572;2023-04-26T10:58:41;100650.50;;;10.06;57.42
4085;BME280;2057;50.858;6.572;2023-04-26T11:03:41;100654.94;;;9.79;57.80
4085;BME280;2057;50.858;6.572;2023-04-26T11:06:09;100652.00;;;10.02;60.02
4085;BME280;2057;50.858;6.572;2023-04-26T11:08:38;100654.28;;;10.46;59.86
4085;BME280;2057;50.858;6.572;2023-04-26T11:13:34;100646.31;;;10.55;60.99
4085;BME280;2057;50.858;6.572;2023-04-26T11:16:01;100643.19;;;10.77;58.32
4085;BME280;2057;50.858;6.572;2023-04-26T11:18:29;100645.63;;;10.75;56.78
4085;BME280;2057;50.858;6.572;2023-04-26T11:20:55;100634.91;;;10.31;54.30
4085;BME280;2057;50.858;6.572;2023-04-26T11:23:21;100625.97;;;10.71;58.31
4085;BME280;2057;50.858;6.572;2023-04-26T11:25:47;100632.56;;;11.02;57.21
4085;BME280;2057;50.858;6.572;2023-04-26T11:28:12;100627.81;;;10.41;56.21
4085;BME280;2057;50.858;6.572;2023-04-26T11:30:38;100627.72;;;10.23;58.75
4085;BME280;2057;50.858;6.572;2023-04-26T11:33:04;100629.34;;;10.05;55.11
4085;BME280;2057;50.858;6.572;2023-04-26T11:35:33;100631.66;;;9.86;56.09
4085;BME280;2057;50.858;6.572;2023-04-26T11:37:59;100622.03;;;10.12;57.26
4085;BME280;2057;50.858;6.572;2023-04-26T11:40:31;100619.13;;;10.20;59.20
4085;BME280;2057;50.858;6.572;2023-04-26T11:43:14;100617.28;;;10.66;59.28
4085;BME280;2057;50.858;6.572;2023-04-26T11:45:41;100611.84;;;11.11;60.33
4085;BME280;2057;50.858;6.572;2023-04-26T11:48:08;100610.84;;;11.25;60.23
4085;BME280;2057;50.858;6.572;2023-04-26T11:50:36;100621.50;;;11.18;57.18
4085;BME280;2057;50.858;6.572;2023-04-26T11:53:04;100604.59;;;11.37;58.99
4085;BME280;2057;50.858;6.572;2023-04-26T11:55:31;100613.31;;;11.42;60.45
4085;BME280;2057;50.858;6.572;2023-04-26T11:58:00;100614.47;;;11.67;56.89
4085;BME280;2057;50.858;6.572;2023-04-26T12:00:27;100620.28;;;11.82;59.35
4085;BME280;2057;50.858;6.572;2023-04-26T12:02:52;100614.97;;;11.59;60.22
4085;BME280;2057;50.858;6.572;2023-04-26T12:05:22;100618.31;;;11.76;58.92
4085;BME280;2057;50.858;6.572;2023-04-26T12:07:50;100623.06;;;11.51;57.73
4085;BME280;2057;50.858;6.572;2023-04-26T12:10:18;100621.09;;;10.92;54.51
4085;BME280;2057;50.858;6.572;2023-04-26T12:12:50;100617.09;;;10.97;54.14
4085;BME280;2057;50.858;6.572;2023-04-26T12:15:16;100620.38;;;11.29;59.46
4085;BME280;2057;50.858;6.572;2023-04-26T12:17:59;100620.06;;;11.59;58.23
4085;BME280;2057;50.858;6.572;2023-04-26T12:20:27;100627.31;;;11.16;53.28
4085;BME280;2057;50.858;6.572;2023-04-26T12:23:16;100614.41;;;11.29;54.41
4085;BME280;2057;50.858;6.572;2023-04-26T12:25:54;100618.56;;;10.92;52.75
4085;BME280;2057;50.858;6.572;2023-04-26T12:28:21;100616.50;;;10.85;55.53
4085;BME280;2057;50.858;6.572;2023-04-26T12:30:47;100621.19;;;10.77;55.39
4085;BME280;2057;50.858;6.572;2023-04-26T12:33:13;100618.94;;;10.49;54.56
4085;BME280;2057;50.858;6.572;2023-04-26T12:35:40;100616.16;;;10.61;54.21
4085;BME280;2057;50.858;6.572;2023-04-26T12:38:06;100619.31;;;10.73;56.59
4085;BME280;2057;50.858;6.572;2023-04-26T12:40:32;100618.09;;;10.83;54.14
4085;BME280;2057;50.858;6.572;2023-04-26T12:42:57;100617.69;;;10.92;54.74
4085;BME280;2057;50.858;6.572;2023-04-26T12:45:23;100613.19;;;11.39;56.92
4085;BME280;2057;50.858;6.572;2023-04-26T12:47:55;100601.03;;;11.69;55.55
4085;BME280;2057;50.858;6.572;2023-04-26T12:50:20;100605.78;;;11.99;54.22
4085;BME280;2057;50.858;6.572;2023-04-26T12:52:46;100605.53;;;12.32;57.07
4085;BME280;2057;50.858;6.572;2023-04-26T12:55:13;100608.97;;;12.13;51.57
4085;BME280;2057;50.858;6.572;2023-04-26T12:57:40;100603.91;;;11.95;53.28
4085;BME280;2057;50.858;6.572;2023-04-26T13:00:09;100596.41;;;11.98;55.81
4085;BME280;2057;50.858;6.572;2023-04-26T13:02:37;100603.13;;;12.16;55.82
4085;BME280;2057;50.858;6.572;2023-04-26T13:05:02;100602.06;;;12.11;54.85
4085;BME280;2057;50.858;6.572;2023-04-26T13:07:32;100606.44;;;12.33;53.46
4085;BME280;2057;50.858;6.572;2023-04-26T13:10:03;100610.03;;;12.38;53.59
4085;BME280;2057;50.858;6.572;2023-04-26T13:12:28;100610.63;;;12.52;53.39
4085;BME280;2057;50.858;6.572;2023-04-26T13:14:54;100603.94;;;12.54;53.12
4085;BME280;2057;50.858;6.572;2023-04-26T13:17:21;100613.19;;;12.93;52.51
4085;BME280;2057;50.858;6.572;2023-04-26T13:19:47;100619.16;;;13.14;51.07
4085;BME280;2057;50.858;6.572;2023-04-26T13:22:12;100613.78;;;13.07;51.11
4085;BME280;2057;50.858;6.572;2023-04-26T13:24:38;100607.91;;;13.52;51.49
4085;BME280;2057;50.858;6.572;2023-04-26T13:27:03;100602.75;;;13.73;51.51
4085;BME280;2057;50.858;6.572;2023-04-26T13:29:29;100598.69;;;14.01;51.78
4085;BME280;2057;50.858;6.572;2023-04-26T13:31:56;100599.53;;;14.24;50.33
4085;BME280;2057;50.858;6.572;2023-04-26T13:34:23;100600.44;;;14.02;51.05
4085;BME280;2057;50.858;6.572;2023-04-26T13:36:52;100600.03;;;12.82;50.85
4085;BME280;2057;50.858;6.572;2023-04-26T13:39:20;100598.75;;;12.72;52.95
4085;BME280;2057;50.858;6.572;2023-04-26T13:41:46;100597.13;;;13.38;53.20
4085;BME280;2057;50.858;6.572;2023-04-26T13:44:11;100594.47;;;13.78;50.60
4085;BME280;2057;50.858;6.572;2023-04-26T13:46:38;100598.06;;;14.06;49.83
4085;BME280;2057;50.858;6.572;2023-04-26T13:49:03;100600.22;;;13.73;45.66
4085;BME280;2057;50.858;6.572;2023-04-26T13:51:29;100600.19;;;14.18;46.56
4085;BME280;2057;50.858;6.572;2023-04-26T13:53:56;100590.66;;;13.90;48.49
4085;BME280;2057;50.858;6.572;2023-04-26T13:56:22;100602.13;;;14.25;47.11
4085;BME280;2057;50.858;6.572;2023-04-26T13:58:48;100585.78;;;13.73;45.66
4085;BME280;2057;50.858;6.572;2023-04-26T14:01:13;100585.97;;;14.25;48.48
4085;BME280;2057;50.858;6.572;2023-04-26T14:03:39;100589.03;;;13.04;47.92
4085;BME280;2057;50.858;6.572;2023-04-26T14:06:06;100582.47;;;12.68;48.16